Nearby METAR Reports

 

KALB - Albany, New York, USA
Distance from station: E 47mi, 75km
Updated: Sun, 21-Oct-2018 1:51pm EDT
Mostly cloudy
Mostly cloudy
 Wind from NW
Wind: NW 22 mph , 35 km/h, Gust: 32 mph , 52 km/h
Temperature: 46°F , 8°C
Wind Chill: 38°F , 3°C
Dew Point: 21°F , -6°C
Humidity: 37%
Barometer: 29.97 inHg , 1014.9 hPa
Clouds: Mostly cloudy
Visibility: 10 miles , 16 km
Cloud details: Mostly cloudy 5500 ft
2018/10/21 17:51 KALB 211751Z 32019G28KT 10SM BKN055 08/M06 A2997 RMK AO2 PK WND 32029/1736 SLP150 T00781061 10078 20039 50004
KSLK - Saranac Lake, New York, USA
Distance from station: N 110mi, 177km
Updated: Sun, 21-Oct-2018 1:51pm EDT
Light snow, Overcast
Light snow, Overcast
 Wind from varies
Wind: varies 5 mph , 7 km/h, Gust: 16 mph , 26 km/h
Temperature: 30°F , -1°C
Wind Chill: 25°F , -4°C
Dew Point: 21°F , -6°C
Humidity: 69%
Barometer: 29.93 inHg , 1013.5 hPa
Summary: Light Snow
Clouds: Overcast
Visibility: 7 miles , 11 km
Cloud details: Partly cloudy 2600 ft
Overcast 3900 ft
2018/10/21 17:51 KSLK 211751Z AUTO VRB04G14KT 7SM -SN SCT026 OVC039 M01/M06 A2993 RMK AO2 SLP152 P0000 60000 T10061056 11006 21028 51009 $
 
KSYR - Syracuse, New York, USA
Distance from station: W 73mi, 117km
Updated: Sun, 21-Oct-2018 12:54pm EDT
Overcast
Overcast
 Wind from WNW
Wind: WNW 14 mph , 22 km/h, Gust: 23 mph , 37 km/h
Temperature: 37°F , 3°C
Wind Chill: 28°F , -2°C
Dew Point: 21°F , -6°C
Humidity: 52%
Barometer: 30.10 inHg , 1019.3 hPa
Clouds: Overcast
Visibility: 10 miles , 16 km
Cloud details: Overcast 4700 ft
2018/10/21 16:54 KSYR 211654Z 30012G20KT 10SM OVC047 03/M06 A3010 RMK AO2 SLP191 OVC V BKN T00331056
KBGM - Binghamton, New York, USA
Distance from station: SW 78mi, 126km
Updated: Sun, 21-Oct-2018 1:36pm EDT
Overcast
Overcast
 Wind from WNW
Wind: WNW 13 mph , 20 km/h, Gust: 26 mph , 43 km/h
Temperature: 34°F , 1°C
Wind Chill: 25°F , -4°C
Dew Point: 21°F , -6°C
Humidity: 60%
Barometer: 30.03 inHg , 1016.9 hPa
Clouds: Overcast
Visibility: 10 miles , 16 km
Cloud details: Overcast 3100 ft
2018/10/21 17:36 KBGM 211736Z 30011G23KT 10SM OVC031 01/M06 A3003 RMK AO2 T00061056
 
KRME - Rome, New York, USA
Distance from station: WNW 43mi, 69km
Updated: Sun, 21-Oct-2018 12:53pm EDT
Mostly cloudy
Mostly cloudy
 Wind from WNW
Wind: WNW 18 mph , 30 km/h
Temperature: 39°F , 4°C
Wind Chill: 30°F , -1°C
Dew Point: 25°F , -4°C
Humidity: 56%
Barometer: 30.06 inHg , 1017.9 hPa
Clouds: Mostly cloudy
Visibility: 10 miles , 16 km
Cloud details: Mostly cloudy 4900 ft
2018/10/21 16:53 KRME 211653Z 30016KT 10SM BKN049 04/M04 A3006 RMK AO2 PK WND 29026/1618 SLP180 T00441044
KJFK - New York, New York, USA
Distance from station: SSE 159mi, 256km
Updated: Sun, 21-Oct-2018 1:51pm EDT
Mostly cloudy
Mostly cloudy
 Wind from NW
Wind: NW 25 mph , 41 km/h, Gust: 37 mph , 59 km/h
Temperature: 48°F , 9°C
Wind Chill: 40°F , 4°C
Dew Point: 27°F , -3°C
Humidity: 43%
Barometer: 29.96 inHg , 1014.6 hPa
Clouds: Mostly cloudy
Visibility: 10 miles , 16 km
Cloud details: Mostly cloudy 5000 ft
2018/10/21 17:51 KJFK 211751Z 31022G32KT 10SM BKN050 09/M03 A2996 RMK AO2 PK WND 32034/1734 SLP144 T00941028 10094 2007
 
KROC - Rochester, New York, USA
Distance from station: W 150mi, 242km
Updated: Sun, 21-Oct-2018 12:54pm EDT
Overcast
Overcast
 Wind from NW
Wind: NW 15 mph , 24 km/h, Gust: 21 mph , 33 km/h
Temperature: 39°F , 4°C
Wind Chill: 31°F , -1°C
Dew Point: 27°F , -3°C
Humidity: 61%
Barometer: 30.14 inHg , 1020.7 hPa
Clouds: Overcast
Visibility: 10 miles , 16 km
Cloud details: Overcast 4000 ft
2018/10/21 16:54 KROC 211654Z 31013G18KT 10SM OVC040 04/M03 A3014 RMK AO2 SLP213 T00441033
KART - Watertown, New York, USA
Distance from station: NNW 103mi, 166km
Updated: Sun, 21-Oct-2018 12:56pm EDT
Few Clouds
Few Clouds
 Wind from NW
Wind: NW 18 mph , 30 km/h, Gust: 24 mph , 39 km/h
Temperature: 39°F , 4°C
Wind Chill: 30°F , -1°C
Dew Point: 19°F , -7°C
Humidity: 45%
Barometer: 30.08 inHg , 1018.6 hPa
Clouds: Few Clouds
Visibility: 10 miles , 16 km
Cloud details: Few Clouds 4900 ft
2018/10/21 16:56 KART 211656Z AUTO 31016G21KT 10SM FEW049 04/M07 A3008 RMK AO2 SLP188 T00441067
 
KELM - Elmira-Corning, New York, USA
Distance from station: SSW 121mi, 195km
Updated: Sun, 21-Oct-2018 12:53pm EDT
Mostly cloudy
Mostly cloudy
 Wind from WNW
Wind: WNW 16 mph , 26 km/h, Gust: 25 mph , 41 km/h
Temperature: 37°F , 3°C
Wind Chill: 28°F , -2°C
Dew Point: 21°F , -6°C
Humidity: 52%
Barometer: 30.10 inHg , 1019.3 hPa
Clouds: Mostly cloudy
Visibility: 10 miles , 16 km
Cloud details: Mostly cloudy 4500 ft
Mostly cloudy 5500 ft
2018/10/21 16:53 KELM 211653Z 30014G22KT 10SM BKN045 BKN055 03/M06 A3010 RMK AO2 SLP199 T00331056
KJHW - Jamestown, New York, USA
Distance from station: SW 238mi, 383km
Updated: Sun, 21-Oct-2018 1:14pm EDT
Overcast
Overcast
 Wind from WNW
Wind: WNW 10 mph , 17 km/h
Temperature: 34°F , 1°C
Wind Chill: 26°F , -3°C
Dew Point: 25°F , -4°C
Humidity: 70%
Barometer: 30.15 inHg , 1021 hPa
Clouds: Overcast
Visibility: 10 miles , 16 km
Cloud details: Overcast 3200 ft
2018/10/21 17:14 KJHW 211714Z AUTO 30009KT 10SM OVC032 01/M04 A3015 RMK AO2 FZRANO
 
KMSS - Massena, New York, USA
Distance from station: N 141mi, 232km
Updated: Sun, 21-Oct-2018 12:53pm EDT
Light snow, Overcast
Light snow, Overcast
 Wind from WNW
Wind: WNW 17 mph , 28 km/h, Gust: 24 mph , 39 km/h
Temperature: 37°F , 3°C
Wind Chill: 27°F , -3°C
Dew Point: 25°F , -4°C
Humidity: 60%
Barometer: 30.03 inHg , 1016.9 hPa
Summary: Light Snow
Clouds: Overcast
Visibility: 7 miles , 11 km
Cloud details: Few Clouds 3100 ft
Mostly cloudy 4600 ft
Overcast 5500 ft
2018/10/21 16:53 KMSS 211653Z AUTO 29015G21KT 7SM -SN FEW031 BKN046 OVC055 03/M04 A3003 RMK AO2 SNB19E31B51 SLP174 P0000 T00281039
KBUF - Buffalo, New York, USA
Distance from station: W 204mi, 328km
Updated: Sun, 21-Oct-2018 12:54pm EDT
Mostly cloudy
Mostly cloudy
 Wind from WNW
Wind: WNW 12 mph , 19 km/h, Gust: 20 mph , 31 km/h
Temperature: 39°F , 4°C
Wind Chill: 32°F , 0°C
Dew Point: 25°F , -4°C
Humidity: 56%
Barometer: 30.17 inHg , 1021.7 hPa
Clouds: Mostly cloudy
Visibility: 10 miles , 16 km
Cloud details: Mostly cloudy 3800 ft
Mostly cloudy 4500 ft
2018/10/21 16:54 KBUF 211654Z 30010G17KT 10SM BKN038 BKN045 04/M04 A3017 RMK AO2 SLP221 T00391039